Time;durP1;ratioP1;P1;durP2;ratioP2;P2;SDS_P1;SDS_P2;PMS_P1;PMS_P2;Temp;Humidity;BMP_temperature;BMP_pressure;BME280_temperature;BME280_humidity;BME280_pressure;Samples;Min_cycle;Max_cycle;Signal;HPM_P1;HPM_P2
2021/11/10 00:00:46;;;;;;;200.90;46.27;;;5.50;99.90;;;;;;5094923;28;20480;-76
2021/11/10 00:03:16;;;;;;;126.23;39.43;;;5.50;99.90;;;;;;5080300;28;20498;-76
2021/11/10 00:05:44;;;;;;;115.33;41.83;;;5.50;99.90;;;;;;5080398;28;20464;-77
2021/11/10 00:08:14;;;;;;;78.70;31.13;;;5.40;99.90;;;;;;5096180;28;20468;-76
2021/11/10 00:10:43;;;;;;;85.97;34.50;;;5.40;99.90;;;;;;5094543;28;20499;-76
2021/11/10 00:15:56;;;;;;;181.87;51.57;;;5.40;99.90;;;;;;5094376;28;20860;-76
2021/11/10 00:18:25;;;;;;;122.73;49.27;;;5.30;99.90;;;;;;5079267;28;20450;-76
2021/11/10 00:20:54;;;;;;;167.20;39.50;;;5.40;99.90;;;;;;5075553;28;20969;-76
2021/11/10 00:23:22;;;;;;;131.73;40.37;;;5.30;99.90;;;;;;5081774;28;20456;-76
2021/11/10 00:25:51;;;;;;;105.80;34.67;;;5.30;99.90;;;;;;5094452;28;20531;-76
2021/11/10 00:28:19;;;;;;;77.87;29.87;;;5.30;99.90;;;;;;5077017;28;20548;-76
2021/11/10 00:30:47;;;;;;;163.53;33.50;;;5.30;99.90;;;;;;5075368;28;20499;-76
2021/11/10 00:33:16;;;;;;;132.53;42.97;;;5.30;99.90;;;;;;5073818;28;20516;-76
2021/11/10 00:35:46;;;;;;;165.23;40.97;;;5.40;99.90;;;;;;5080773;28;20456;-76
2021/11/10 00:38:14;;;;;;;184.50;40.47;;;5.30;99.90;;;;;;5093260;28;20551;-77
2021/11/10 00:40:43;;;;;;;124.27;95.20;;;5.30;99.90;;;;;;5095296;28;20452;-76
2021/11/10 00:43:12;;;;;;;120.50;36.57;;;5.30;99.90;;;;;;5077858;28;20477;-76
2021/11/10 00:45:40;;;;;;;117.00;34.03;;;5.30;99.90;;;;;;5074740;28;20437;-76
2021/11/10 00:48:10;;;;;;;87.17;32.40;;;5.30;99.90;;;;;;5074293;28;20853;-76
2021/11/10 00:50:39;;;;;;;160.70;40.50;;;5.30;99.90;;;;;;5075308;28;20951;-76
2021/11/10 00:53:08;;;;;;;107.73;33.37;;;5.30;99.90;;;;;;5093811;28;20830;-76
2021/11/10 00:55:36;;;;;;;123.07;39.47;;;5.30;99.90;;;;;;5094247;28;20459;-76
2021/11/10 00:58:05;;;;;;;112.10;31.90;;;5.30;99.90;;;;;;5093874;28;20807;-76
2021/11/10 01:00:33;;;;;;;115.07;34.80;;;5.30;99.90;;;;;;5089129;28;20482;-77
2021/11/10 01:03:02;;;;;;;89.03;31.80;;;5.30;99.90;;;;;;5073427;28;20456;-76
2021/11/10 01:05:32;;;;;;;148.23;41.67;;;5.30;99.90;;;;;;5073955;28;20436;-77
2021/11/10 01:08:00;;;;;;;101.60;32.23;;;5.30;99.90;;;;;;5073276;28;20469;-76
2021/11/10 01:10:30;;;;;;;139.63;40.87;;;5.30;99.90;;;;;;5072920;28;20494;-76
2021/11/10 01:13:01;;;;;;;35.67;33.40;;;5.30;99.90;;;;;;5072040;28;20453;-76
2021/11/10 01:15:29;;;;;;;113.33;26.50;;;5.30;99.90;;;;;;5075721;28;20524;-76
2021/11/10 01:17:58;;;;;;;100.80;28.43;;;5.30;99.90;;;;;;5093612;28;20519;-76
2021/11/10 01:20:26;;;;;;;71.43;34.77;;;5.30;99.90;;;;;;5085083;28;20505;-77
2021/11/10 01:22:55;;;;;;;112.23;35.83;;;5.30;99.90;;;;;;5093286;28;20452;-77
2021/11/10 01:25:27;;;;;;;143.13;43.37;;;5.20;99.90;;;;;;5093548;28;20458;-77
2021/11/10 01:27:57;;;;;;;123.67;29.73;;;5.30;99.90;;;;;;5093113;28;20460;-77
2021/11/10 01:30:27;;;;;;;146.87;35.17;;;5.20;99.90;;;;;;5092104;28;20451;-77
2021/11/10 01:32:58;;;;;;;121.00;29.57;;;5.20;99.90;;;;;;5052808;28;20868;-77
2021/11/10 01:35:27;;;;;;;161.60;36.20;;;5.20;99.90;;;;;;5061601;28;20458;-77
2021/11/10 01:37:55;;;;;;;154.43;39.37;;;5.20;99.90;;;;;;5092779;28;20457;-76
2021/11/10 01:40:28;;;;;;;189.63;46.60;;;5.20;99.90;;;;;;5092801;28;20870;-77
2021/11/10 01:43:05;;;;;;;132.97;30.60;;;5.20;99.90;;;;;;5092580;28;20456;-77
2021/11/10 01:45:36;;;;;;;138.03;47.53;;;5.20;99.90;;;;;;5092766;28;20979;-76
2021/11/10 01:48:05;;;;;;;90.60;35.73;;;5.20;99.90;;;;;;5092603;28;20475;-76
2021/11/10 01:50:33;;;;;;;116.70;30.70;;;5.20;99.90;;;;;;5089547;28;20468;-76
2021/11/10 01:53:03;;;;;;;98.97;27.53;;;5.10;99.90;;;;;;5072410;28;20539;-77
2021/11/10 01:55:31;;;;;;;160.43;44.37;;;5.10;99.90;;;;;;5072043;28;20519;-76
2021/11/10 01:58:01;;;;;;;161.53;39.43;;;5.10;99.90;;;;;;5086219;28;20452;-76
2021/11/10 02:00:35;;;;;;;135.23;40.60;;;5.10;99.90;;;;;;5091567;28;20802;-76
2021/11/10 02:03:09;;;;;;;108.70;35.70;;;5.10;99.90;;;;;;5092576;28;20439;-77
2021/11/10 02:05:43;;;;;;;103.87;54.67;;;5.00;99.90;;;;;;5088879;28;20439;-77
2021/11/10 02:08:24;;;;;;;160.17;58.33;;;5.00;99.90;;;;;;5092640;28;20479;-76
2021/11/10 02:10:54;;;;;;;159.60;47.93;;;5.00;99.90;;;;;;5092344;28;20838;-76
2021/11/10 02:13:28;;;;;;;141.73;43.97;;;5.00;99.90;;;;;;5074647;28;20475;-76
2021/11/10 02:16:00;;;;;;;146.67;42.00;;;5.00;99.90;;;;;;5072118;28;20433;-76
2021/11/10 02:18:30;;;;;;;209.07;45.57;;;5.00;99.90;;;;;;5072425;28;20495;-77
2021/11/10 02:21:09;;;;;;;145.23;51.03;;;4.90;99.90;;;;;;5072127;28;20508;-76
2021/11/10 02:23:37;;;;;;;97.37;43.80;;;4.90;99.90;;;;;;5071984;28;20478;-76
2021/11/10 02:26:12;;;;;;;156.07;46.77;;;4.90;99.90;;;;;;5070079;28;20974;-76
2021/11/10 02:28:41;;;;;;;1999.90;646.33;;;4.90;99.90;;;;;;5073655;28;20590;-76
2021/11/10 02:31:10;;;;;;;185.90;41.90;;;4.80;99.90;;;;;;5072196;28;21016;-76
2021/11/10 02:33:39;;;;;;;1999.90;681.17;;;4.80;99.90;;;;;;5071965;28;20993;-76
2021/11/10 02:36:09;;;;;;;158.30;42.37;;;4.80;99.90;;;;;;5072061;28;20477;-76
2021/11/10 02:38:38;;;;;;;131.77;45.47;;;4.80;99.90;;;;;;5071776;28;20477;-76
2021/11/10 02:41:09;;;;;;;141.00;41.20;;;4.80;99.90;;;;;;5077711;28;20468;-76
2021/11/10 02:43:37;;;;;;;155.57;41.80;;;4.70;99.90;;;;;;5091910;28;20826;-76
2021/11/10 02:46:05;;;;;;;149.83;54.50;;;4.70;99.90;;;;;;5091966;28;20536;-76
2021/11/10 02:48:34;;;;;;;144.87;35.83;;;4.70;99.90;;;;;;5091806;28;20472;-76
2021/11/10 02:51:02;;;;;;;102.40;40.93;;;4.70;99.90;;;;;;5091849;28;20988;-76
2021/11/10 02:53:34;;;;;;;245.57;58.40;;;4.70;99.90;;;;;;5071798;28;20452;-76
2021/11/10 02:56:02;;;;;;;109.80;44.43;;;4.60;99.90;;;;;;5071721;28;20445;-76
2021/11/10 02:58:32;;;;;;;1999.90;752.20;;;4.60;99.90;;;;;;5071649;28;20445;-77
2021/11/10 03:01:03;;;;;;;124.60;58.07;;;4.60;99.90;;;;;;5073257;28;20894;-76
2021/11/10 03:03:33;;;;;;;191.90;51.23;;;4.60;99.90;;;;;;5071952;28;20499;-76
2021/11/10 03:06:02;;;;;;;121.77;45.97;;;4.60;99.90;;;;;;5071695;28;20823;-76
2021/11/10 03:08:34;;;;;;;150.97;46.10;;;4.60;99.90;;;;;;5087944;28;20471;-77
2021/11/10 03:11:10;;;;;;;106.87;36.17;;;4.60;99.90;;;;;;5091737;28;20474;-77
2021/11/10 03:13:40;;;;;;;144.10;42.67;;;4.50;99.90;;;;;;5097081;28;20440;-77
2021/11/10 03:16:11;;;;;;;155.70;41.33;;;4.50;99.90;;;;;;5095561;28;20510;-76
2021/11/10 03:18:41;;;;;;;159.00;42.10;;;4.50;99.90;;;;;;5095608;28;20527;-76
2021/11/10 03:21:10;;;;;;;145.60;42.67;;;4.50;99.90;;;;;;5087539;28;20477;-76
2021/11/10 03:23:40;;;;;;;142.83;41.43;;;4.50;99.90;;;;;;5082839;28;21031;-77
2021/11/10 03:26:08;;;;;;;108.50;37.53;;;4.50;99.90;;;;;;5075006;28;20463;-76
2021/11/10 03:28:37;;;;;;;146.57;41.10;;;4.40;99.90;;;;;;5074920;28;20496;-77
2021/11/10 03:31:06;;;;;;;197.37;54.60;;;4.40;99.90;;;;;;5074960;28;20555;-77
2021/11/10 03:33:37;;;;;;;147.70;46.27;;;4.40;99.90;;;;;;5075005;28;20980;-76
2021/11/10 03:36:06;;;;;;;139.63;42.20;;;4.40;99.90;;;;;;5074990;28;20440;-76
2021/11/10 03:38:37;;;;;;;167.63;43.40;;;4.40;99.90;;;;;;5075069;28;20433;-77
2021/11/10 03:41:11;;;;;;;138.80;43.90;;;4.40;99.90;;;;;;5074874;28;20472;-77
2021/11/10 03:43:40;;;;;;;144.87;42.33;;;4.40;99.90;;;;;;5090752;28;20474;-77
2021/11/10 03:46:08;;;;;;;104.37;35.77;;;4.40;99.90;;;;;;5094968;28;20535;-77
2021/11/10 03:48:38;;;;;;;144.73;46.83;;;4.30;99.90;;;;;;5094909;28;20468;-77
2021/11/10 03:51:07;;;;;;;169.03;45.07;;;4.30;99.90;;;;;;5085983;28;20516;-76
2021/11/10 03:53:37;;;;;;;1999.90;784.63;;;4.30;99.90;;;;;;5074615;28;20434;-77
2021/11/10 03:56:06;;;;;;;1999.90;906.87;;;4.30;99.90;;;;;;5074472;28;20445;-77
2021/11/10 03:58:37;;;;;;;119.50;52.90;;;4.30;99.90;;;;;;5074774;28;20459;-77
2021/11/10 04:01:07;;;;;;;190.27;42.93;;;4.30;99.90;;;;;;5074504;28;20548;-77
2021/11/10 04:03:37;;;;;;;96.67;49.33;;;4.30;99.90;;;;;;5074375;28;20457;-76
2021/11/10 04:06:05;;;;;;;171.87;47.07;;;4.30;99.90;;;;;;5084122;28;20444;-76
2021/11/10 04:08:37;;;;;;;89.10;39.63;;;4.30;99.90;;;;;;5094117;28;20468;-76
2021/11/10 04:11:05;;;;;;;117.40;47.70;;;4.30;99.90;;;;;;5074152;28;20469;-76
2021/11/10 04:13:36;;;;;;;170.43;37.03;;;4.20;99.90;;;;;;5074140;28;20536;-76
2021/11/10 04:16:05;;;;;;;129.20;49.93;;;4.20;99.90;;;;;;5074242;28;20487;-76
2021/11/10 04:18:35;;;;;;;151.00;34.40;;;4.20;99.90;;;;;;5074097;28;20461;-77
2021/11/10 04:21:13;;;;;;;159.13;39.13;;;4.20;99.90;;;;;;5074321;28;20559;-77
2021/11/10 04:23:42;;;;;;;161.00;40.93;;;4.20;99.90;;;;;;5073103;28;20506;-77
2021/11/10 04:26:15;;;;;;;202.53;53.70;;;4.20;99.90;;;;;;5074157;28;20448;-77
2021/11/10 04:28:44;;;;;;;124.33;44.47;;;4.20;99.90;;;;;;5073905;28;20477;-76
2021/11/10 04:31:13;;;;;;;153.27;48.07;;;4.20;99.90;;;;;;5074169;28;20473;-77
2021/11/10 04:33:44;;;;;;;150.33;52.97;;;4.20;99.90;;;;;;5074733;28;20795;-77
2021/11/10 04:36:14;;;;;;;167.43;48.10;;;4.20;99.90;;;;;;5082648;28;20458;-76
2021/11/10 04:38:45;;;;;;;141.47;48.03;;;4.20;99.90;;;;;;5074175;28;20540;-76
2021/11/10 04:41:15;;;;;;;119.03;39.37;;;4.10;99.90;;;;;;5073677;28;20465;-77
2021/11/10 04:43:46;;;;;;;92.57;37.93;;;4.10;99.90;;;;;;5073520;28;20461;-76
2021/11/10 04:46:21;;;;;;;103.77;35.37;;;4.10;99.90;;;;;;5073563;28;20441;-76
2021/11/10 04:48:50;;;;;;;136.60;51.87;;;4.10;99.90;;;;;;5073487;28;20873;-76
2021/11/10 04:51:18;;;;;;;166.07;42.60;;;4.10;99.90;;;;;;5073387;28;20471;-77
2021/11/10 04:53:48;;;;;;;158.43;46.37;;;4.10;99.90;;;;;;5076032;28;20965;-77
2021/11/10 04:56:17;;;;;;;107.00;35.43;;;4.10;99.90;;;;;;5078595;28;20456;-77
2021/11/10 04:58:46;;;;;;;130.90;45.80;;;4.10;99.90;;;;;;5093547;28;20945;-76
2021/11/10 05:01:21;;;;;;;130.37;40.73;;;4.10;99.90;;;;;;5093521;28;20475;-77
2021/11/10 05:03:50;;;;;;;137.23;43.23;;;4.10;99.90;;;;;;5095041;28;20430;-77
2021/11/10 05:06:19;;;;;;;79.83;39.70;;;4.10;99.90;;;;;;5090014;28;20449;-76
2021/11/10 05:08:49;;;;;;;164.80;40.03;;;4.10;99.90;;;;;;5093304;28;20531;-77
2021/11/10 05:11:20;;;;;;;76.03;30.13;;;4.10;99.90;;;;;;5093424;28;20468;-76
2021/11/10 05:13:50;;;;;;;137.37;43.10;;;4.10;99.90;;;;;;5092779;28;20863;-77
2021/11/10 05:16:20;;;;;;;147.37;37.93;;;4.10;99.90;;;;;;5093820;28;20439;-76
2021/11/10 05:18:52;;;;;;;86.47;37.20;;;4.10;99.90;;;;;;5092781;28;20469;-77
2021/11/10 05:21:23;;;;;;;124.23;34.83;;;4.10;99.90;;;;;;5094018;28;20517;-76
2021/11/10 05:23:51;;;;;;;194.83;44.97;;;4.10;99.90;;;;;;5075768;28;20510;-76
2021/11/10 05:26:19;;;;;;;97.33;36.10;;;4.10;99.90;;;;;;5077263;28;20554;-77
2021/11/10 05:28:48;;;;;;;1990.20;568.90;;;4.00;99.90;;;;;;5093095;28;20509;-76
2021/11/10 05:31:18;;;;;;;90.37;36.83;;;4.10;99.90;;;;;;5093431;28;20481;-76
2021/11/10 05:33:46;;;;;;;133.90;43.93;;;4.10;99.90;;;;;;5092905;28;20899;-77
2021/11/10 05:36:15;;;;;;;126.83;44.27;;;4.10;99.90;;;;;;5093974;28;20440;-77
2021/11/10 05:38:43;;;;;;;195.30;42.17;;;4.10;99.90;;;;;;5094788;28;20444;-77
2021/11/10 05:41:12;;;;;;;120.27;42.23;;;4.10;99.90;;;;;;5092754;28;20472;-76
2021/11/10 05:43:40;;;;;;;134.27;46.17;;;4.10;99.90;;;;;;5092745;28;20549;-77
2021/11/10 05:46:09;;;;;;;1805.87;573.47;;;4.10;99.90;;;;;;5076630;28;20528;-76
2021/11/10 05:48:39;;;;;;;128.43;45.13;;;4.10;99.90;;;;;;5072454;28;20502;-77
2021/11/10 05:51:09;;;;;;;127.40;37.40;;;4.10;99.90;;;;;;5072472;28;20487;-77
2021/11/10 05:53:43;;;;;;;118.87;40.63;;;4.10;99.90;;;;;;5072693;28;20484;-77
2021/11/10 05:56:18;;;;;;;152.83;42.03;;;4.10;99.90;;;;;;5072637;28;20438;-77
2021/11/10 05:58:47;;;;;;;121.17;44.07;;;4.10;99.90;;;;;;5072613;28;20441;-78
2021/11/10 06:01:16;;;;;;;175.33;46.63;;;4.10;99.90;;;;;;5072812;28;20839;-77
2021/11/10 06:03:46;;;;;;;1999.90;687.77;;;4.10;99.90;;;;;;5072668;28;21000;-77
2021/11/10 06:06:14;;;;;;;115.20;40.50;;;4.10;99.90;;;;;;5073855;28;20445;-77
2021/11/10 06:08:42;;;;;;;159.30;44.53;;;4.10;99.90;;;;;;5072585;28;20510;-77
2021/11/10 06:11:12;;;;;;;1801.67;552.73;;;4.10;99.90;;;;;;5071081;28;20477;-76
2021/11/10 06:13:41;;;;;;;125.93;40.17;;;4.10;99.90;;;;;;5072278;28;20444;-77
2021/11/10 06:16:10;;;;;;;98.77;40.13;;;4.10;99.90;;;;;;5072223;28;20453;-76
2021/11/10 06:18:38;;;;;;;181.63;53.53;;;4.10;99.90;;;;;;5072019;28;20451;-76
2021/11/10 06:21:08;;;;;;;199.23;41.30;;;4.10;99.90;;;;;;5072024;28;20525;-76
2021/11/10 06:23:36;;;;;;;197.30;50.10;;;4.10;99.90;;;;;;5072003;28;20509;-77
2021/11/10 06:26:05;;;;;;;151.03;52.10;;;4.10;99.90;;;;;;5072710;28;20452;-76
2021/11/10 06:28:33;;;;;;;113.50;50.17;;;4.10;99.90;;;;;;5072127;28;20484;-77
2021/11/10 06:31:02;;;;;;;1999.90;717.43;;;4.10;99.90;;;;;;5071911;28;20534;-77
2021/11/10 06:33:30;;;;;;;141.40;47.83;;;4.20;99.90;;;;;;5072031;28;20440;-77
2021/11/10 06:35:59;;;;;;;129.90;46.53;;;4.10;99.90;;;;;;5072427;28;20454;-77
2021/11/10 06:38:29;;;;;;;110.57;44.03;;;4.10;99.90;;;;;;5072312;28;20482;-76
2021/11/10 06:40:57;;;;;;;186.07;50.80;;;4.10;99.90;;;;;;5071840;28;20545;-77
2021/11/10 06:43:26;;;;;;;95.97;41.70;;;4.10;99.90;;;;;;5073142;28;20572;-77
2021/11/10 06:45:54;;;;;;;99.33;41.67;;;4.10;99.90;;;;;;5071941;28;20452;-77
2021/11/10 06:48:23;;;;;;;67.80;40.30;;;4.10;99.90;;;;;;5075573;28;20456;-77
2021/11/10 06:50:51;;;;;;;136.87;40.10;;;4.00;99.90;;;;;;5075880;28;20507;-77
2021/11/10 06:53:20;;;;;;;124.83;40.40;;;4.10;99.90;;;;;;5077515;28;20437;-77
2021/11/10 06:55:49;;;;;;;117.10;36.87;;;4.10;99.90;;;;;;5077198;28;20452;-77
2021/11/10 06:58:18;;;;;;;129.77;37.90;;;4.10;99.90;;;;;;5075821;28;20957;-77
2021/11/10 07:00:46;;;;;;;153.90;43.13;;;4.10;99.90;;;;;;5075800;28;20497;-77
2021/11/10 07:03:19;;;;;;;104.10;37.67;;;4.10;99.90;;;;;;5075700;28;20810;-77
2021/11/10 07:05:48;;;;;;;73.90;34.03;;;4.10;99.90;;;;;;5077232;28;20444;-77
2021/11/10 07:08:16;;;;;;;119.60;32.83;;;4.10;99.90;;;;;;5077236;28;20596;-77
2021/11/10 07:10:44;;;;;;;147.20;36.40;;;4.20;99.90;;;;;;5076583;28;21000;-77
2021/11/10 07:13:14;;;;;;;138.23;39.97;;;4.20;99.90;;;;;;5077153;28;20502;-77
2021/11/10 07:15:42;;;;;;;98.20;38.13;;;4.20;99.90;;;;;;5075642;28;21009;-77
2021/11/10 07:18:10;;;;;;;118.23;45.33;;;4.20;99.90;;;;;;5076682;28;20428;-77
2021/11/10 07:20:39;;;;;;;67.40;31.63;;;4.20;99.90;;;;;;5075349;28;20950;-77
2021/11/10 07:23:08;;;;;;;125.77;42.53;;;4.20;99.90;;;;;;5076476;28;20524;-77
2021/11/10 07:25:36;;;;;;;92.53;37.10;;;4.30;99.90;;;;;;5076636;28;20574;-76
2021/11/10 07:28:05;;;;;;;73.90;35.53;;;4.30;99.90;;;;;;5076956;28;20444;-77
2021/11/10 07:30:37;;;;;;;139.03;129.80;;;4.30;99.90;;;;;;5075212;28;20560;-76
2021/11/10 07:33:05;;;;;;;171.33;48.37;;;4.30;99.90;;;;;;5075385;28;20927;-77
2021/11/10 07:35:34;;;;;;;118.93;48.70;;;4.30;99.90;;;;;;5076647;28;20863;-77
2021/11/10 07:38:03;;;;;;;168.47;40.70;;;4.30;99.90;;;;;;5077176;28;20441;-77
2021/11/10 07:40:31;;;;;;;156.07;41.00;;;4.30;99.90;;;;;;5075295;28;20956;-77
2021/11/10 07:43:00;;;;;;;93.37;40.80;;;4.30;99.90;;;;;;5075235;28;20548;-77
2021/11/10 07:45:33;;;;;;;81.33;37.83;;;4.40;99.90;;;;;;5075401;28;20792;-77
2021/11/10 07:48:05;;;;;;;129.23;41.10;;;4.40;99.90;;;;;;5075121;28;20481;-77
2021/11/10 07:50:34;;;;;;;197.00;47.57;;;4.40;99.90;;;;;;5076499;28;20461;-76
2021/11/10 07:53:03;;;;;;;105.90;41.93;;;4.40;99.90;;;;;;5076159;28;20448;-76
2021/11/10 07:55:32;;;;;;;122.83;38.87;;;4.50;99.90;;;;;;5075887;28;20437;-76
2021/11/10 07:58:00;;;;;;;134.83;38.63;;;4.50;99.90;;;;;;5073749;28;20468;-77
2021/11/10 08:00:36;;;;;;;140.93;44.47;;;4.50;99.90;;;;;;5076108;28;20424;-76
2021/11/10 08:03:06;;;;;;;140.67;39.97;;;4.60;99.90;;;;;;5076308;28;20528;-77
2021/11/10 08:05:35;;;;;;;150.77;42.07;;;4.60;99.90;;;;;;5074403;28;20973;-76
2021/11/10 08:08:04;;;;;;;83.50;38.90;;;4.60;99.90;;;;;;5075941;28;20529;-76
2021/11/10 08:10:50;;;;;;;118.87;110.57;;;4.60;99.90;;;;;;5075686;28;20473;-76
2021/11/10 08:13:18;;;;;;;101.57;36.57;;;4.70;99.90;;;;;;5074156;28;20974;-77
2021/11/10 08:15:46;;;;;;;131.93;46.63;;;4.70;99.90;;;;;;5074190;28;20938;-76
2021/11/10 08:18:18;;;;;;;124.17;39.03;;;4.80;99.90;;;;;;5074095;28;20989;-76
2021/11/10 08:20:46;;;;;;;116.93;41.20;;;4.80;99.90;;;;;;5075544;28;20803;-77
2021/11/10 08:23:19;;;;;;;145.47;48.20;;;4.90;99.90;;;;;;5074078;28;20529;-77
2021/11/10 08:25:48;;;;;;;201.37;47.17;;;4.90;99.90;;;;;;5074256;28;20438;-77
2021/11/10 08:28:17;;;;;;;121.13;41.20;;;4.90;99.90;;;;;;5074147;28;20479;-76
2021/11/10 08:30:46;;;;;;;133.00;34.83;;;5.00;99.90;;;;;;5075610;28;20514;-77
2021/11/10 08:33:16;;;;;;;99.20;43.90;;;5.00;99.90;;;;;;5074663;28;20449;-77
2021/11/10 08:35:44;;;;;;;104.10;39.00;;;5.10;99.90;;;;;;5075441;28;20487;-77
2021/11/10 08:38:12;;;;;;;81.30;36.27;;;5.10;99.90;;;;;;5074383;28;20556;-77
2021/11/10 08:40:41;;;;;;;140.07;43.63;;;5.20;99.90;;;;;;5075025;28;20921;-77
2021/11/10 08:43:11;;;;;;;107.17;35.00;;;5.20;99.90;;;;;;5073407;28;20459;-76
2021/11/10 08:45:43;;;;;;;127.73;42.57;;;5.30;99.90;;;;;;5075154;28;20879;-77
2021/11/10 08:48:12;;;;;;;165.40;47.93;;;5.40;99.90;;;;;;5073561;28;20567;-78
2021/11/10 08:50:44;;;;;;;135.77;41.73;;;5.50;99.90;;;;;;5074933;28;20464;-77
2021/11/10 08:53:17;;;;;;;193.43;45.07;;;5.60;99.90;;;;;;5073556;28;20918;-77
2021/11/10 08:55:47;;;;;;;212.20;54.37;;;5.60;99.90;;;;;;5073507;28;21011;-76
2021/11/10 08:58:15;;;;;;;106.70;38.83;;;5.70;99.90;;;;;;5075543;28;20469;-77
2021/11/10 09:00:46;;;;;;;159.73;41.63;;;5.80;99.90;;;;;;5075075;28;20859;-77
2021/11/10 09:03:15;;;;;;;163.33;35.10;;;5.90;99.90;;;;;;5073354;28;20446;-77
2021/11/10 09:05:45;;;;;;;142.20;40.40;;;6.00;99.90;;;;;;5074833;28;20532;-77
2021/11/10 09:08:13;;;;;;;147.00;37.10;;;6.10;99.90;;;;;;5073212;28;20506;-77
2021/11/10 09:10:42;;;;;;;186.40;44.43;;;6.20;99.90;;;;;;5074154;28;20453;-77
2021/11/10 09:13:10;;;;;;;169.33;45.37;;;6.30;99.90;;;;;;5074437;28;20560;-77
2021/11/10 09:15:42;;;;;;;100.63;36.97;;;6.40;99.90;;;;;;5074964;28;20428;-77
2021/11/10 09:18:10;;;;;;;140.23;48.87;;;6.40;99.90;;;;;;5074486;28;20534;-77
2021/11/10 09:20:40;;;;;;;149.63;43.83;;;6.50;99.90;;;;;;5074400;28;20441;-77
2021/11/10 09:23:13;;;;;;;184.80;46.00;;;6.60;99.90;;;;;;5073026;28;20491;-76
2021/11/10 09:25:43;;;;;;;185.03;45.30;;;6.60;99.90;;;;;;5072894;28;20481;-77
2021/11/10 09:28:14;;;;;;;136.63;42.23;;;6.70;99.90;;;;;;5072908;28;20459;-77
2021/11/10 09:30:44;;;;;;;152.90;39.17;;;6.70;99.90;;;;;;5072911;28;20454;-77
2021/11/10 09:33:14;;;;;;;157.20;51.47;;;6.80;99.90;;;;;;5073043;28;20881;-77
2021/11/10 09:35:45;;;;;;;160.10;45.27;;;6.90;99.90;;;;;;5073048;28;20452;-77
2021/11/10 09:38:15;;;;;;;251.70;56.43;;;7.00;99.90;;;;;;5074582;28;20884;-77
2021/11/10 09:40:45;;;;;;;211.30;52.03;;;7.00;99.90;;;;;;5074323;28;21020;-77
2021/11/10 09:43:15;;;;;;;145.83;42.87;;;7.10;99.90;;;;;;5072951;28;20465;-77
2021/11/10 09:45:46;;;;;;;150.10;51.63;;;7.20;99.90;;;;;;5074396;28;20426;-77
2021/11/10 09:48:16;;;;;;;141.97;44.57;;;7.20;99.90;;;;;;5074634;28;20426;-77
2021/11/10 09:50:48;;;;;;;116.73;34.90;;;7.30;99.90;;;;;;5073557;28;20466;-77
2021/11/10 09:53:18;;;;;;;167.90;51.90;;;7.30;99.90;;;;;;5073297;28;20469;-77
2021/11/10 09:55:47;;;;;;;102.33;42.73;;;7.40;99.90;;;;;;5073140;28;20914;-77
2021/11/10 09:58:17;;;;;;;136.57;48.60;;;7.50;99.90;;;;;;5073231;28;20448;-77
2021/11/10 10:00:49;;;;;;;157.13;39.60;;;7.50;99.90;;;;;;5072932;28;20482;-77
2021/11/10 10:03:18;;;;;;;192.97;42.23;;;7.50;99.90;;;;;;5074317;28;20902;-77
2021/11/10 10:05:48;;;;;;;199.00;47.23;;;7.60;99.90;;;;;;5074205;28;20433;-80
2021/11/10 10:08:19;;;;;;;205.03;47.07;;;7.60;99.90;;;;;;5075060;28;20426;-77
2021/11/10 10:10:48;;;;;;;94.40;36.87;;;7.60;99.90;;;;;;5072970;28;20468;-77
2021/11/10 10:13:18;;;;;;;199.23;51.37;;;7.70;99.90;;;;;;5073956;28;20466;-77
2021/11/10 10:15:48;;;;;;;177.10;50.13;;;7.70;99.90;;;;;;5073596;28;20853;-77
2021/11/10 10:18:18;;;;;;;241.63;54.43;;;7.70;99.90;;;;;;5073397;28;20478;-77
2021/11/10 10:20:51;;;;;;;244.50;53.53;;;7.80;99.90;;;;;;5072485;28;20496;-77
2021/11/10 10:23:22;;;;;;;164.17;51.40;;;7.80;99.90;;;;;;5074271;28;20492;-77
2021/11/10 10:25:53;;;;;;;210.33;59.20;;;7.90;99.90;;;;;;5073282;28;20447;-77
2021/11/10 10:28:27;;;;;;;155.27;39.20;;;7.90;99.90;;;;;;5072840;28;20452;-77
2021/11/10 10:31:01;;;;;;;151.67;42.50;;;8.00;99.90;;;;;;5075542;28;20476;-77
2021/11/10 10:33:33;;;;;;;114.70;45.00;;;8.00;99.90;;;;;;5074861;28;20464;-77
2021/11/10 10:36:06;;;;;;;133.97;44.53;;;8.00;99.90;;;;;;5073794;28;20489;-77
2021/11/10 10:38:39;;;;;;;184.37;43.93;;;8.10;99.90;;;;;;5072790;28;20813;-77
2021/11/10 10:41:09;;;;;;;146.77;41.80;;;8.10;99.90;;;;;;5073259;28;20525;-77
2021/11/10 10:43:42;;;;;;;182.30;52.47;;;8.10;99.90;;;;;;5074268;28;20497;-77
2021/11/10 10:46:11;;;;;;;107.43;36.63;;;8.20;99.90;;;;;;5072880;28;20443;-77
2021/11/10 10:48:40;;;;;;;184.83;43.53;;;8.20;99.90;;;;;;5072844;28;20440;-77
2021/11/10 10:51:10;;;;;;;187.60;46.17;;;8.20;99.90;;;;;;5074295;28;20455;-77
2021/11/10 10:53:42;;;;;;;128.53;34.20;;;8.30;99.90;;;;;;5074317;28;20583;-77
2021/11/10 10:56:17;;;;;;;223.50;57.17;;;8.30;99.90;;;;;;5072794;28;20451;-77
2021/11/10 10:58:46;;;;;;;153.40;41.53;;;8.40;99.90;;;;;;5072924;28;20447;-77
2021/11/10 11:01:27;;;;;;;206.90;45.33;;;8.40;99.90;;;;;;5072447;28;20594;-77
2021/11/10 11:04:00;;;;;;;307.13;63.73;;;8.50;99.90;;;;;;5072904;28;20465;-77
2021/11/10 11:06:31;;;;;;;270.20;48.70;;;8.50;99.90;;;;;;5072480;28;20480;-77
2021/11/10 11:09:14;;;;;;;259.07;46.77;;;8.50;99.90;;;;;;5074186;28;20438;-77
2021/11/10 11:11:58;;;;;;;138.20;33.73;;;8.60;99.90;;;;;;5072782;28;20476;-77
2021/11/10 11:14:48;;;;;;;261.93;52.30;;;8.60;99.90;;;;;;5073976;28;20510;-77
2021/11/10 11:17:26;;;;;;;232.27;43.73;;;8.70;99.90;;;;;;5072562;28;20444;-77
2021/11/10 11:19:57;;;;;;;190.03;48.33;;;8.70;99.90;;;;;;5072422;28;20448;-76
2021/11/10 11:22:27;;;;;;;204.97;44.43;;;8.70;99.90;;;;;;5071379;28;20465;-76
2021/11/10 11:24:58;;;;;;;352.63;55.00;;;8.80;99.90;;;;;;5071792;28;20543;-76
2021/11/10 11:27:29;;;;;;;235.97;51.50;;;8.80;99.90;;;;;;5071472;28;20543;-76
2021/11/10 11:30:10;;;;;;;258.83;52.03;;;8.90;99.90;;;;;;5071445;28;20930;-76
2021/11/10 11:32:41;;;;;;;196.07;40.30;;;8.90;99.90;;;;;;5071991;28;20520;-76
2021/11/10 11:35:20;;;;;;;242.97;44.27;;;9.00;99.90;;;;;;5076299;28;20778;-76
2021/11/10 11:37:49;;;;;;;303.13;42.00;;;9.00;99.90;;;;;;5076986;28;20496;-76
2021/11/10 11:40:22;;;;;;;298.03;59.20;;;9.00;99.90;;;;;;5075127;28;20455;-76
2021/11/10 11:42:52;;;;;;;234.90;35.40;;;9.10;99.90;;;;;;5076424;28;20473;-77
2021/11/10 11:45:22;;;;;;;278.07;63.73;;;9.10;99.90;;;;;;5074673;28;20504;-76
2021/11/10 11:47:52;;;;;;;307.60;57.27;;;9.20;99.90;;;;;;5074811;28;20997;-76
2021/11/10 11:50:21;;;;;;;154.67;38.53;;;9.20;99.90;;;;;;5074713;28;20476;-76
2021/11/10 11:52:51;;;;;;;343.90;45.07;;;9.20;99.90;;;;;;5076132;28;20468;-76
2021/11/10 11:55:24;;;;;;;241.37;49.97;;;9.30;99.90;;;;;;5075399;28;20835;-76
2021/11/10 11:58:03;;;;;;;344.77;74.23;;;9.30;99.90;;;;;;5076047;28;20586;-76
2021/11/10 12:00:34;;;;;;;360.53;65.73;;;9.30;99.90;;;;;;5075897;28;20500;-77
2021/11/10 12:03:16;;;;;;;325.57;66.07;;;9.30;99.90;;;;;;5075738;28;20438;-76
2021/11/10 12:05:46;;;;;;;178.40;51.47;;;9.40;99.90;;;;;;5075911;28;20486;-76
2021/11/10 12:08:34;;;;;;;329.07;57.40;;;9.40;99.90;;;;;;5074306;28;20466;-76
2021/11/10 12:11:30;;;;;;;275.57;61.20;;;9.40;99.90;;;;;;5075256;28;20453;-76
2021/11/10 12:14:11;;;;;;;270.13;53.30;;;9.50;99.90;;;;;;5074154;28;20548;-76
2021/11/10 12:16:51;;;;;;;289.90;60.20;;;9.50;99.90;;;;;;5074256;28;20434;-77
2021/11/10 12:19:23;;;;;;;360.90;68.30;;;9.50;99.90;;;;;;5074132;28;20444;-76
2021/11/10 12:21:56;;;;;;;381.80;71.00;;;9.50;99.90;;;;;;5073997;28;21037;-76
2021/11/10 12:24:29;;;;;;;385.00;74.43;;;9.60;99.90;;;;;;5074114;28;20445;-76
2021/11/10 12:27:18;;;;;;;365.03;68.53;;;9.60;99.90;;;;;;5075394;28;20936;-76
2021/11/10 12:29:54;;;;;;;306.87;63.70;;;9.60;99.90;;;;;;5073996;28;20499;-76
2021/11/10 12:32:25;;;;;;;404.70;63.00;;;9.60;99.90;;;;;;5074105;28;20500;-76
2021/11/10 12:34:55;;;;;;;430.90;76.60;;;9.60;99.90;;;;;;5073746;28;20485;-76
2021/11/10 12:37:29;;;;;;;339.80;70.53;;;9.60;99.90;;;;;;5073768;28;20784;-76
2021/11/10 12:40:13;;;;;;;370.30;66.33;;;9.70;99.90;;;;;;5074011;28;20861;-76
2021/11/10 12:42:49;;;;;;;371.63;74.40;;;9.70;99.90;;;;;;5073430;28;20488;-78
2021/11/10 12:45:22;;;;;;;253.77;58.23;;;9.70;99.90;;;;;;5072924;28;20502;-76
2021/11/10 12:47:51;;;;;;;345.33;61.60;;;9.70;99.90;;;;;;5073565;28;20438;-76